sensor_id;sensor_type;location;lat;lon;timestamp;P1;durP1;ratioP1;P2;durP2;ratioP2
44254;SDS011;29933;47.226;15.734;2022-09-09T13:15:38;0.73;;;0.63;;
44254;SDS011;29933;47.226;15.734;2022-09-09T13:18:05;0.55;;;0.35;;
44254;SDS011;29933;47.226;15.734;2022-09-09T13:20:38;1.48;;;0.60;;
44254;SDS011;29933;47.226;15.734;2022-09-09T13:23:11;1.58;;;0.50;;
44254;SDS011;29933;47.226;15.734;2022-09-09T13:25:38;0.65;;;0.40;;
44254;SDS011;29933;47.226;15.734;2022-09-09T13:28:05;0.60;;;0.30;;
44254;SDS011;29933;47.226;15.734;2022-09-09T13:31:03;1.38;;;0.30;;
44254;SDS011;29933;47.226;15.734;2022-09-09T13:33:44;1.35;;;0.80;;
44254;SDS011;29933;47.226;15.734;2022-09-09T13:36:10;0.55;;;0.50;;
44254;SDS011;29933;47.226;15.734;2022-09-09T13:41:21;2.05;;;0.40;;
44254;SDS011;29933;47.226;15.734;2022-09-09T13:43:50;0.82;;;0.40;;
44254;SDS011;29933;47.226;15.734;2022-09-09T13:46:25;2.90;;;0.65;;
44254;SDS011;29933;47.226;15.734;2022-09-09T13:51:37;0.65;;;0.55;;
44254;SDS011;29933;47.226;15.734;2022-09-09T13:54:15;2.35;;;0.70;;
44254;SDS011;29933;47.226;15.734;2022-09-09T13:56:45;0.68;;;0.68;;
44254;SDS011;29933;47.226;15.734;2022-09-09T13:59:13;0.50;;;0.50;;
44254;SDS011;29933;47.226;15.734;2022-09-09T14:01:43;0.63;;;0.45;;
44254;SDS011;29933;47.226;15.734;2022-09-09T14:04:10;0.50;;;0.45;;
44254;SDS011;29933;47.226;15.734;2022-09-09T14:06:37;1.35;;;0.40;;
44254;SDS011;29933;47.226;15.734;2022-09-09T14:09:07;2.08;;;0.68;;
44254;SDS011;29933;47.226;15.734;2022-09-09T14:11:37;0.70;;;0.40;;
44254;SDS011;29933;47.226;15.734;2022-09-09T14:14:03;0.40;;;0.40;;
44254;SDS011;29933;47.226;15.734;2022-09-09T14:16:30;0.47;;;0.45;;
44254;SDS011;29933;47.226;15.734;2022-09-09T14:18:56;0.80;;;0.70;;
44254;SDS011;29933;47.226;15.734;2022-09-09T14:21:22;1.27;;;0.60;;
44254;SDS011;29933;47.226;15.734;2022-09-09T14:23:49;0.60;;;0.45;;
44254;SDS011;29933;47.226;15.734;2022-09-09T14:26:15;0.98;;;0.70;;
44254;SDS011;29933;47.226;15.734;2022-09-09T14:28:46;0.43;;;0.43;;
44254;SDS011;29933;47.226;15.734;2022-09-09T14:31:13;0.60;;;0.50;;
44254;SDS011;29933;47.226;15.734;2022-09-09T14:33:39;1.75;;;0.50;;
44254;SDS011;29933;47.226;15.734;2022-09-09T14:36:06;0.88;;;0.60;;
44254;SDS011;29933;47.226;15.734;2022-09-09T14:38:34;0.85;;;0.40;;
44254;SDS011;29933;47.226;15.734;2022-09-09T14:41:07;0.63;;;0.57;;
44254;SDS011;29933;47.226;15.734;2022-09-09T14:46:07;0.80;;;0.50;;
44254;SDS011;29933;47.226;15.734;2022-09-09T14:48:39;1.40;;;0.60;;
44254;SDS011;29933;47.226;15.734;2022-09-09T14:51:13;1.27;;;0.60;;
44254;SDS011;29933;47.226;15.734;2022-09-09T14:53:42;0.75;;;0.50;;
44254;SDS011;29933;47.226;15.734;2022-09-09T14:56:10;0.65;;;0.50;;
44254;SDS011;29933;47.226;15.734;2022-09-09T14:58:41;0.75;;;0.75;;
44254;SDS011;29933;47.226;15.734;2022-09-09T15:01:16;0.63;;;0.63;;
44254;SDS011;29933;47.226;15.734;2022-09-09T15:04:00;0.88;;;0.55;;
44254;SDS011;29933;47.226;15.734;2022-09-09T15:06:30;1.65;;;0.75;;
44254;SDS011;29933;47.226;15.734;2022-09-09T15:09:03;2.50;;;0.60;;
44254;SDS011;29933;47.226;15.734;2022-09-09T15:11:31;0.52;;;0.43;;
44254;SDS011;29933;47.226;15.734;2022-09-09T15:14:03;0.70;;;0.70;;
44254;SDS011;29933;47.226;15.734;2022-09-09T15:16:34;1.90;;;0.90;;
44254;SDS011;29933;47.226;15.734;2022-09-09T15:19:07;0.73;;;0.73;;
44254;SDS011;29933;47.226;15.734;2022-09-09T15:21:34;1.13;;;0.98;;
44254;SDS011;29933;47.226;15.734;2022-09-09T15:24:03;2.10;;;0.55;;
44254;SDS011;29933;47.226;15.734;2022-09-09T15:26:29;3.58;;;1.48;;
44254;SDS011;29933;47.226;15.734;2022-09-09T15:28:56;2.05;;;0.65;;
44254;SDS011;29933;47.226;15.734;2022-09-09T15:31:29;3.63;;;1.08;;
44254;SDS011;29933;47.226;15.734;2022-09-09T15:34:01;0.93;;;0.80;;
44254;SDS011;29933;47.226;15.734;2022-09-09T15:36:39;0.77;;;0.77;;
44254;SDS011;29933;47.226;15.734;2022-09-09T15:39:11;0.60;;;0.55;;
44254;SDS011;29933;47.226;15.734;2022-09-09T15:42:01;4.22;;;0.75;;
44254;SDS011;29933;47.226;15.734;2022-09-09T15:44:29;1.00;;;0.70;;
44254;SDS011;29933;47.226;15.734;2022-09-09T15:46:56;0.80;;;0.50;;
44254;SDS011;29933;47.226;15.734;2022-09-09T15:49:24;0.93;;;0.88;;
44254;SDS011;29933;47.226;15.734;2022-09-09T15:51:53;1.52;;;1.25;;
44254;SDS011;29933;47.226;15.734;2022-09-09T15:54:28;1.35;;;0.98;;
44254;SDS011;29933;47.226;15.734;2022-09-09T15:56:59;4.18;;;1.05;;
44254;SDS011;29933;47.226;15.734;2022-09-09T15:59:28;3.15;;;1.10;;
44254;SDS011;29933;47.226;15.734;2022-09-09T16:01:56;1.00;;;0.68;;
44254;SDS011;29933;47.226;15.734;2022-09-09T16:04:24;2.15;;;1.17;;
44254;SDS011;29933;47.226;15.734;2022-09-09T16:06:53;1.15;;;0.65;;
44254;SDS011;29933;47.226;15.734;2022-09-09T16:09:30;0.93;;;0.93;;
44254;SDS011;29933;47.226;15.734;2022-09-09T16:11:58;2.38;;;1.27;;
44254;SDS011;29933;47.226;15.734;2022-09-09T16:14:27;0.70;;;0.40;;
44254;SDS011;29933;47.226;15.734;2022-09-09T16:16:53;1.83;;;1.15;;
44254;SDS011;29933;47.226;15.734;2022-09-09T16:19:19;0.73;;;0.70;;
44254;SDS011;29933;47.226;15.734;2022-09-09T16:21:47;1.17;;;0.90;;
44254;SDS011;29933;47.226;15.734;2022-09-09T16:24:15;1.42;;;1.33;;
44254;SDS011;29933;47.226;15.734;2022-09-09T16:26:45;1.10;;;0.80;;
44254;SDS011;29933;47.226;15.734;2022-09-09T16:29:14;2.50;;;0.98;;
44254;SDS011;29933;47.226;15.734;2022-09-09T16:31:42;0.60;;;0.57;;
44254;SDS011;29933;47.226;15.734;2022-09-09T16:34:09;1.10;;;1.00;;
44254;SDS011;29933;47.226;15.734;2022-09-09T16:36:37;3.10;;;0.47;;
44254;SDS011;29933;47.226;15.734;2022-09-09T16:39:06;0.90;;;0.75;;
44254;SDS011;29933;47.226;15.734;2022-09-09T16:41:39;1.05;;;0.90;;
44254;SDS011;29933;47.226;15.734;2022-09-09T16:44:07;1.55;;;1.13;;
44254;SDS011;29933;47.226;15.734;2022-09-09T16:46:36;0.82;;;0.82;;
44254;SDS011;29933;47.226;15.734;2022-09-09T16:49:05;0.80;;;0.70;;
44254;SDS011;29933;47.226;15.734;2022-09-09T16:51:38;0.93;;;0.80;;
44254;SDS011;29933;47.226;15.734;2022-09-09T16:54:10;4.25;;;2.97;;
44254;SDS011;29933;47.226;15.734;2022-09-09T16:56:39;2.85;;;2.58;;
44254;SDS011;29933;47.226;15.734;2022-09-09T16:59:18;3.33;;;1.50;;
44254;SDS011;29933;47.226;15.734;2022-09-09T17:01:47;2.53;;;1.65;;
44254;SDS011;29933;47.226;15.734;2022-09-09T17:04:16;3.97;;;3.22;;
44254;SDS011;29933;47.226;15.734;2022-09-09T17:06:49;3.38;;;2.63;;
44254;SDS011;29933;47.226;15.734;2022-09-09T17:09:17;2.25;;;1.70;;
44254;SDS011;29933;47.226;15.734;2022-09-09T17:11:44;2.20;;;1.13;;
44254;SDS011;29933;47.226;15.734;2022-09-09T17:14:14;1.27;;;1.17;;
44254;SDS011;29933;47.226;15.734;2022-09-09T17:16:42;3.22;;;1.08;;
44254;SDS011;29933;47.226;15.734;2022-09-09T17:19:09;0.80;;;0.80;;
44254;SDS011;29933;47.226;15.734;2022-09-09T17:21:36;1.05;;;0.70;;
44254;SDS011;29933;47.226;15.734;2022-09-09T17:24:03;1.27;;;0.98;;
44254;SDS011;29933;47.226;15.734;2022-09-09T17:26:30;2.15;;;0.90;;
44254;SDS011;29933;47.226;15.734;2022-09-09T17:28:59;3.15;;;1.10;;
44254;SDS011;29933;47.226;15.734;2022-09-09T17:31:26;0.65;;;0.50;;
44254;SDS011;29933;47.226;15.734;2022-09-09T17:33:53;0.68;;;0.60;;
44254;SDS011;29933;47.226;15.734;2022-09-09T17:36:23;4.00;;;0.77;;
44254;SDS011;29933;47.226;15.734;2022-09-09T17:39:06;0.85;;;0.60;;
44254;SDS011;29933;47.226;15.734;2022-09-09T17:41:36;1.88;;;0.55;;
44254;SDS011;29933;47.226;15.734;2022-09-09T17:44:05;3.30;;;0.93;;
44254;SDS011;29933;47.226;15.734;2022-09-09T17:49:05;0.85;;;0.77;;
44254;SDS011;29933;47.226;15.734;2022-09-09T17:51:55;1.50;;;0.70;;
44254;SDS011;29933;47.226;15.734;2022-09-09T17:54:21;1.90;;;1.02;;
44254;SDS011;29933;47.226;15.734;2022-09-09T17:56:48;1.38;;;0.90;;
44254;SDS011;29933;47.226;15.734;2022-09-09T17:59:14;1.83;;;0.80;;
44254;SDS011;29933;47.226;15.734;2022-09-09T18:01:43;0.90;;;0.50;;
44254;SDS011;29933;47.226;15.734;2022-09-09T18:04:13;1.38;;;0.95;;
44254;SDS011;29933;47.226;15.734;2022-09-09T18:06:42;1.00;;;0.80;;
44254;SDS011;29933;47.226;15.734;2022-09-09T18:09:14;1.58;;;1.00;;
44254;SDS011;29933;47.226;15.734;2022-09-09T18:11:52;1.48;;;0.60;;
44254;SDS011;29933;47.226;15.734;2022-09-09T18:14:37;1.17;;;0.93;;
44254;SDS011;29933;47.226;15.734;2022-09-09T18:17:03;3.15;;;2.08;;
44254;SDS011;29933;47.226;15.734;2022-09-09T18:19:31;3.75;;;1.00;;
44254;SDS011;29933;47.226;15.734;2022-09-09T18:21:57;1.20;;;1.10;;
44254;SDS011;29933;47.226;15.734;2022-09-09T18:24:24;1.40;;;1.30;;
44254;SDS011;29933;47.226;15.734;2022-09-09T18:26:50;1.83;;;1.27;;
44254;SDS011;29933;47.226;15.734;2022-09-09T18:29:20;1.75;;;1.17;;
44254;SDS011;29933;47.226;15.734;2022-09-09T18:31:49;1.52;;;1.00;;
44254;SDS011;29933;47.226;15.734;2022-09-09T18:34:19;2.45;;;1.30;;
44254;SDS011;29933;47.226;15.734;2022-09-09T18:36:50;1.98;;;1.13;;
44254;SDS011;29933;47.226;15.734;2022-09-09T18:39:21;1.88;;;1.35;;
44254;SDS011;29933;47.226;15.734;2022-09-09T18:41:52;1.52;;;1.20;;
44254;SDS011;29933;47.226;15.734;2022-09-09T18:44:23;1.55;;;1.45;;
44254;SDS011;29933;47.226;15.734;2022-09-09T18:46:52;1.05;;;0.90;;
44254;SDS011;29933;47.226;15.734;2022-09-09T18:49:19;1.42;;;0.82;;
44254;SDS011;29933;47.226;15.734;2022-09-09T18:51:48;1.13;;;1.02;;
44254;SDS011;29933;47.226;15.734;2022-09-09T18:54:16;3.25;;;0.90;;
44254;SDS011;29933;47.226;15.734;2022-09-09T18:56:50;1.02;;;0.82;;
44254;SDS011;29933;47.226;15.734;2022-09-09T18:59:18;1.70;;;0.82;;
44254;SDS011;29933;47.226;15.734;2022-09-09T19:01:46;5.13;;;1.10;;
44254;SDS011;29933;47.226;15.734;2022-09-09T19:04:14;1.30;;;0.90;;
44254;SDS011;29933;47.226;15.734;2022-09-09T19:06:43;3.10;;;1.02;;
44254;SDS011;29933;47.226;15.734;2022-09-09T19:09:12;1.17;;;1.08;;
44254;SDS011;29933;47.226;15.734;2022-09-09T19:11:40;0.80;;;0.80;;
44254;SDS011;29933;47.226;15.734;2022-09-09T19:14:07;1.50;;;1.15;;
44254;SDS011;29933;47.226;15.734;2022-09-09T19:16:37;3.70;;;1.35;;
44254;SDS011;29933;47.226;15.734;2022-09-09T19:19:06;3.72;;;0.93;;
44254;SDS011;29933;47.226;15.734;2022-09-09T19:21:37;2.70;;;1.45;;
44254;SDS011;29933;47.226;15.734;2022-09-09T19:24:13;1.85;;;1.27;;
44254;SDS011;29933;47.226;15.734;2022-09-09T19:26:45;3.90;;;1.25;;
44254;SDS011;29933;47.226;15.734;2022-09-09T19:29:16;1.33;;;1.20;;
44254;SDS011;29933;47.226;15.734;2022-09-09T19:34:11;5.57;;;1.63;;
44254;SDS011;29933;47.226;15.734;2022-09-09T19:36:39;1.58;;;1.20;;
44254;SDS011;29933;47.226;15.734;2022-09-09T19:39:06;3.67;;;1.10;;
44254;SDS011;29933;47.226;15.734;2022-09-09T19:41:34;0.98;;;0.90;;
44254;SDS011;29933;47.226;15.734;2022-09-09T19:44:04;1.73;;;0.98;;
44254;SDS011;29933;47.226;15.734;2022-09-09T19:46:36;3.50;;;1.15;;
44254;SDS011;29933;47.226;15.734;2022-09-09T19:49:04;3.35;;;1.30;;
44254;SDS011;29933;47.226;15.734;2022-09-09T19:51:31;1.63;;;1.52;;
44254;SDS011;29933;47.226;15.734;2022-09-09T19:54:00;7.43;;;0.82;;
44254;SDS011;29933;47.226;15.734;2022-09-09T19:56:36;1.25;;;0.80;;
44254;SDS011;29933;47.226;15.734;2022-09-09T19:59:04;3.58;;;1.40;;
44254;SDS011;29933;47.226;15.734;2022-09-09T20:01:33;6.07;;;1.08;;
44254;SDS011;29933;47.226;15.734;2022-09-09T20:04:02;1.08;;;0.98;;
44254;SDS011;29933;47.226;15.734;2022-09-09T20:06:31;5.90;;;0.90;;
44254;SDS011;29933;47.226;15.734;2022-09-09T20:09:01;1.00;;;0.82;;
44254;SDS011;29933;47.226;15.734;2022-09-09T20:11:28;1.10;;;0.80;;
44254;SDS011;29933;47.226;15.734;2022-09-09T20:13:54;1.95;;;0.80;;
44254;SDS011;29933;47.226;15.734;2022-09-09T20:16:21;3.42;;;1.60;;
44254;SDS011;29933;47.226;15.734;2022-09-09T20:18:51;1.13;;;0.75;;
44254;SDS011;29933;47.226;15.734;2022-09-09T20:21:30;1.17;;;0.77;;
44254;SDS011;29933;47.226;15.734;2022-09-09T20:24:04;0.93;;;0.70;;
44254;SDS011;29933;47.226;15.734;2022-09-09T20:26:34;1.42;;;0.90;;
44254;SDS011;29933;47.226;15.734;2022-09-09T20:29:02;3.38;;;1.60;;
44254;SDS011;29933;47.226;15.734;2022-09-09T20:31:31;1.35;;;1.10;;
44254;SDS011;29933;47.226;15.734;2022-09-09T20:34:00;1.33;;;1.23;;
44254;SDS011;29933;47.226;15.734;2022-09-09T20:36:29;1.17;;;1.10;;
44254;SDS011;29933;47.226;15.734;2022-09-09T20:38:58;5.20;;;1.40;;
44254;SDS011;29933;47.226;15.734;2022-09-09T20:41:34;5.25;;;1.20;;
44254;SDS011;29933;47.226;15.734;2022-09-09T20:44:03;2.10;;;1.30;;
44254;SDS011;29933;47.226;15.734;2022-09-09T20:46:36;4.63;;;1.50;;
44254;SDS011;29933;47.226;15.734;2022-09-09T20:49:06;2.17;;;1.10;;
44254;SDS011;29933;47.226;15.734;2022-09-09T20:51:35;1.30;;;1.20;;
44254;SDS011;29933;47.226;15.734;2022-09-09T20:54:03;2.92;;;1.33;;
44254;SDS011;29933;47.226;15.734;2022-09-09T20:56:32;8.90;;;1.20;;
44254;SDS011;29933;47.226;15.734;2022-09-09T20:59:05;1.75;;;1.05;;
44254;SDS011;29933;47.226;15.734;2022-09-09T21:01:35;2.47;;;1.70;;
44254;SDS011;29933;47.226;15.734;2022-09-09T21:04:02;4.47;;;1.63;;
44254;SDS011;29933;47.226;15.734;2022-09-09T21:06:29;5.25;;;1.63;;
44254;SDS011;29933;47.226;15.734;2022-09-09T21:08:55;6.85;;;1.42;;
44254;SDS011;29933;47.226;15.734;2022-09-09T21:11:21;2.70;;;1.80;;
44254;SDS011;29933;47.226;15.734;2022-09-09T21:13:48;1.70;;;1.40;;
44254;SDS011;29933;47.226;15.734;2022-09-09T21:16:16;2.85;;;1.80;;
44254;SDS011;29933;47.226;15.734;2022-09-09T21:21:11;3.85;;;2.42;;
44254;SDS011;29933;47.226;15.734;2022-09-09T21:23:39;3.08;;;1.65;;
44254;SDS011;29933;47.226;15.734;2022-09-09T21:26:06;4.40;;;1.23;;
44254;SDS011;29933;47.226;15.734;2022-09-09T21:28:32;5.47;;;1.52;;
44254;SDS011;29933;47.226;15.734;2022-09-09T21:31:00;1.30;;;1.10;;
44254;SDS011;29933;47.226;15.734;2022-09-09T21:33:26;4.28;;;1.45;;
44254;SDS011;29933;47.226;15.734;2022-09-09T21:35:53;4.70;;;1.45;;
44254;SDS011;29933;47.226;15.734;2022-09-09T21:38:25;1.45;;;1.33;;
44254;SDS011;29933;47.226;15.734;2022-09-09T21:40:51;2.13;;;1.30;;
44254;SDS011;29933;47.226;15.734;2022-09-09T21:43:18;2.70;;;1.48;;
44254;SDS011;29933;47.226;15.734;2022-09-09T21:45:45;1.48;;;1.25;;
44254;SDS011;29933;47.226;15.734;2022-09-09T21:48:12;3.60;;;1.92;;
44254;SDS011;29933;47.226;15.734;2022-09-09T21:50:44;3.53;;;1.45;;
44254;SDS011;29933;47.226;15.734;2022-09-09T21:53:12;1.52;;;1.35;;
44254;SDS011;29933;47.226;15.734;2022-09-09T21:55:42;1.90;;;1.35;;
44254;SDS011;29933;47.226;15.734;2022-09-09T21:58:11;1.42;;;1.10;;
44254;SDS011;29933;47.226;15.734;2022-09-09T22:00:39;1.88;;;1.42;;
44254;SDS011;29933;47.226;15.734;2022-09-09T22:03:06;1.02;;;0.77;;
44254;SDS011;29933;47.226;15.734;2022-09-09T22:05:32;2.85;;;1.27;;
44254;SDS011;29933;47.226;15.734;2022-09-09T22:07:58;1.10;;;0.93;;
44254;SDS011;29933;47.226;15.734;2022-09-09T22:10:24;1.42;;;1.25;;
44254;SDS011;29933;47.226;15.734;2022-09-09T22:12:51;2.10;;;1.77;;
44254;SDS011;29933;47.226;15.734;2022-09-09T22:15:18;3.60;;;1.83;;
44254;SDS011;29933;47.226;15.734;2022-09-09T22:17:44;2.58;;;2.00;;
44254;SDS011;29933;47.226;15.734;2022-09-09T22:20:10;2.25;;;1.77;;
44254;SDS011;29933;47.226;15.734;2022-09-09T22:22:37;1.25;;;1.08;;
44254;SDS011;29933;47.226;15.734;2022-09-09T22:25:04;2.65;;;1.00;;
44254;SDS011;29933;47.226;15.734;2022-09-09T22:27:31;3.28;;;1.02;;
44254;SDS011;29933;47.226;15.734;2022-09-09T22:29:57;2.83;;;1.55;;
44254;SDS011;29933;47.226;15.734;2022-09-09T22:32:24;1.67;;;1.23;;
44254;SDS011;29933;47.226;15.734;2022-09-09T22:34:50;1.48;;;1.13;;
44254;SDS011;29933;47.226;15.734;2022-09-09T22:37:16;1.25;;;1.13;;
44254;SDS011;29933;47.226;15.734;2022-09-09T22:39:42;1.45;;;0.98;;
44254;SDS011;29933;47.226;15.734;2022-09-09T22:42:07;1.13;;;0.88;;
44254;SDS011;29933;47.226;15.734;2022-09-09T22:44:33;2.85;;;1.75;;
44254;SDS011;29933;47.226;15.734;2022-09-09T22:47:00;2.65;;;1.23;;
44254;SDS011;29933;47.226;15.734;2022-09-09T22:49:26;1.55;;;1.00;;
44254;SDS011;29933;47.226;15.734;2022-09-09T22:51:52;1.40;;;1.17;;
44254;SDS011;29933;47.226;15.734;2022-09-09T22:54:18;1.23;;;1.13;;
44254;SDS011;29933;47.226;15.734;2022-09-09T22:56:46;1.83;;;1.10;;
44254;SDS011;29933;47.226;15.734;2022-09-09T22:59:13;2.63;;;1.08;;
44254;SDS011;29933;47.226;15.734;2022-09-09T23:01:39;1.55;;;1.05;;
44254;SDS011;29933;47.226;15.734;2022-09-09T23:04:06;1.20;;;1.10;;
44254;SDS011;29933;47.226;15.734;2022-09-09T23:06:32;3.08;;;1.33;;
44254;SDS011;29933;47.226;15.734;2022-09-09T23:09:00;1.63;;;1.17;;
44254;SDS011;29933;47.226;15.734;2022-09-09T23:11:28;2.72;;;1.20;;
44254;SDS011;29933;47.226;15.734;2022-09-09T23:14:01;4.45;;;1.00;;
44254;SDS011;29933;47.226;15.734;2022-09-09T23:16:33;1.60;;;1.15;;
44254;SDS011;29933;47.226;15.734;2022-09-09T23:19:07;1.75;;;1.25;;
44254;SDS011;29933;47.226;15.734;2022-09-09T23:21:39;1.42;;;1.08;;
44254;SDS011;29933;47.226;15.734;2022-09-09T23:24:05;6.13;;;1.25;;
44254;SDS011;29933;47.226;15.734;2022-09-09T23:26:33;2.13;;;1.20;;
44254;SDS011;29933;47.226;15.734;2022-09-09T23:28:59;1.67;;;1.20;;
44254;SDS011;29933;47.226;15.734;2022-09-09T23:31:28;2.58;;;1.27;;
44254;SDS011;29933;47.226;15.734;2022-09-09T23:33:57;2.80;;;2.00;;
